sensor_id;sensor_type;location;lat;lon;timestamp;pressure;altitude;pressure_sealevel;temperature;humidity
73594;BME280;64760;53.404;23.498;2023-04-09T00:00:11;100301.69;;;8.74;98.97
73594;BME280;64760;53.404;23.498;2023-04-09T00:03:00;100312.34;;;8.90;98.14
73594;BME280;64760;53.404;23.498;2023-04-09T00:05:27;100309.19;;;8.79;99.47
73594;BME280;64760;53.404;23.498;2023-04-09T00:07:53;100305.66;;;8.86;98.63
73594;BME280;64760;53.404;23.498;2023-04-09T00:10:20;100304.88;;;8.70;100.00
73594;BME280;64760;53.404;23.498;2023-04-09T00:12:46;100306.69;;;8.69;100.00
73594;BME280;64760;53.404;23.498;2023-04-09T00:15:12;100302.69;;;8.73;100.00
73594;BME280;64760;53.404;23.498;2023-04-09T00:17:38;100296.38;;;8.50;100.00
73594;BME280;64760;53.404;23.498;2023-04-09T00:20:05;100299.72;;;8.44;100.00
73594;BME280;64760;53.404;23.498;2023-04-09T00:22:32;100300.53;;;8.28;100.00
73594;BME280;64760;53.404;23.498;2023-04-09T00:24:59;100307.94;;;8.34;100.00
73594;BME280;64760;53.404;23.498;2023-04-09T00:27:25;100294.72;;;8.49;100.00
73594;BME280;64760;53.404;23.498;2023-04-09T00:29:53;100303.56;;;8.58;100.00
73594;BME280;64760;53.404;23.498;2023-04-09T00:32:20;100294.03;;;8.63;100.00
73594;BME280;64760;53.404;23.498;2023-04-09T00:34:47;100292.19;;;8.72;100.00
73594;BME280;64760;53.404;23.498;2023-04-09T00:37:13;100301.81;;;8.81;100.00
73594;BME280;64760;53.404;23.498;2023-04-09T00:39:39;100296.66;;;8.79;100.00
73594;BME280;64760;53.404;23.498;2023-04-09T00:42:06;100284.09;;;8.80;100.00
73594;BME280;64760;53.404;23.498;2023-04-09T00:44:32;100287.78;;;8.87;100.00
73594;BME280;64760;53.404;23.498;2023-04-09T00:46:58;100303.50;;;8.82;100.00
73594;BME280;64760;53.404;23.498;2023-04-09T00:49:26;100296.00;;;8.77;100.00
73594;BME280;64760;53.404;23.498;2023-04-09T00:51:52;100300.31;;;8.86;100.00
73594;BME280;64760;53.404;23.498;2023-04-09T00:54:19;100296.97;;;8.84;100.00
73594;BME280;64760;53.404;23.498;2023-04-09T00:56:45;100302.47;;;8.91;100.00
73594;BME280;64760;53.404;23.498;2023-04-09T00:59:12;100299.97;;;8.89;100.00
73594;BME280;64760;53.404;23.498;2023-04-09T01:01:39;100292.63;;;8.91;100.00
73594;BME280;64760;53.404;23.498;2023-04-09T01:04:05;100287.28;;;8.91;100.00
73594;BME280;64760;53.404;23.498;2023-04-09T01:06:41;100295.31;;;8.83;100.00
73594;BME280;64760;53.404;23.498;2023-04-09T01:09:17;100299.47;;;8.94;100.00
73594;BME280;64760;53.404;23.498;2023-04-09T01:12:20;100301.44;;;8.92;100.00
73594;BME280;64760;53.404;23.498;2023-04-09T01:15:12;100302.94;;;9.03;100.00
73594;BME280;64760;53.404;23.498;2023-04-09T01:17:43;100296.91;;;9.01;100.00
73594;BME280;64760;53.404;23.498;2023-04-09T01:28:35;100302.50;;;8.83;100.00
73594;BME280;64760;53.404;23.498;2023-04-09T01:31:06;100298.00;;;8.83;100.00
73594;BME280;64760;53.404;23.498;2023-04-09T01:33:34;100304.41;;;8.34;100.00
73594;BME280;64760;53.404;23.498;2023-04-09T01:36:01;100311.72;;;8.48;100.00
73594;BME280;64760;53.404;23.498;2023-04-09T01:38:29;100305.38;;;8.57;100.00
73594;BME280;64760;53.404;23.498;2023-04-09T01:40:56;100302.38;;;8.44;100.00
73594;BME280;64760;53.404;23.498;2023-04-09T01:43:23;100306.56;;;8.22;100.00
73594;BME280;64760;53.404;23.498;2023-04-09T01:45:51;100303.41;;;8.27;100.00
73594;BME280;64760;53.404;23.498;2023-04-09T01:48:18;100302.41;;;8.28;100.00
73594;BME280;64760;53.404;23.498;2023-04-09T01:50:46;100302.09;;;8.31;100.00
73594;BME280;64760;53.404;23.498;2023-04-09T01:53:12;100311.09;;;8.30;100.00
73594;BME280;64760;53.404;23.498;2023-04-09T01:55:39;100308.06;;;8.17;100.00
73594;BME280;64760;53.404;23.498;2023-04-09T01:58:05;100316.06;;;8.00;100.00
73594;BME280;64760;53.404;23.498;2023-04-09T02:00:39;100314.88;;;7.79;100.00
73594;BME280;64760;53.404;23.498;2023-04-09T02:03:13;100313.88;;;7.72;100.00
73594;BME280;64760;53.404;23.498;2023-04-09T02:05:56;100320.84;;;7.65;100.00
73594;BME280;64760;53.404;23.498;2023-04-09T02:08:27;100308.81;;;7.52;100.00
73594;BME280;64760;53.404;23.498;2023-04-09T02:10:57;100315.16;;;7.51;100.00
73594;BME280;64760;53.404;23.498;2023-04-09T02:13:23;100317.78;;;7.35;100.00
73594;BME280;64760;53.404;23.498;2023-04-09T02:15:55;100317.63;;;7.53;100.00
73594;BME280;64760;53.404;23.498;2023-04-09T02:18:24;100313.97;;;7.54;100.00
73594;BME280;64760;53.404;23.498;2023-04-09T02:20:51;100311.66;;;7.51;100.00
73594;BME280;64760;53.404;23.498;2023-04-09T02:23:17;100308.28;;;7.49;100.00
73594;BME280;64760;53.404;23.498;2023-04-09T02:25:43;100311.47;;;7.52;100.00
73594;BME280;64760;53.404;23.498;2023-04-09T02:28:10;100312.00;;;7.56;100.00
73594;BME280;64760;53.404;23.498;2023-04-09T02:30:36;100298.81;;;7.54;100.00
73594;BME280;64760;53.404;23.498;2023-04-09T02:33:02;100306.50;;;7.57;100.00
73594;BME280;64760;53.404;23.498;2023-04-09T02:35:29;100303.66;;;7.59;100.00
73594;BME280;64760;53.404;23.498;2023-04-09T02:37:55;100307.63;;;7.39;100.00
73594;BME280;64760;53.404;23.498;2023-04-09T02:40:22;100303.34;;;7.62;100.00
73594;BME280;64760;53.404;23.498;2023-04-09T02:42:50;100308.19;;;7.75;100.00
73594;BME280;64760;53.404;23.498;2023-04-09T02:45:16;100317.69;;;7.69;100.00
73594;BME280;64760;53.404;23.498;2023-04-09T02:47:43;100319.03;;;7.73;100.00
73594;BME280;64760;53.404;23.498;2023-04-09T02:50:09;100322.06;;;7.86;100.00
73594;BME280;64760;53.404;23.498;2023-04-09T02:52:39;100316.72;;;7.78;100.00
73594;BME280;64760;53.404;23.498;2023-04-09T02:55:06;100309.53;;;7.79;100.00
73594;BME280;64760;53.404;23.498;2023-04-09T02:57:33;100312.38;;;7.93;100.00
73594;BME280;64760;53.404;23.498;2023-04-09T02:59:59;100309.56;;;7.95;100.00
73594;BME280;64760;53.404;23.498;2023-04-09T03:02:25;100310.72;;;7.92;100.00
73594;BME280;64760;53.404;23.498;2023-04-09T03:04:52;100309.38;;;7.88;100.00
73594;BME280;64760;53.404;23.498;2023-04-09T03:07:18;100310.88;;;7.83;100.00
73594;BME280;64760;53.404;23.498;2023-04-09T03:09:44;100312.03;;;7.80;100.00
73594;BME280;64760;53.404;23.498;2023-04-09T03:12:10;100308.84;;;7.77;100.00
73594;BME280;64760;53.404;23.498;2023-04-09T03:14:37;100311.03;;;7.81;100.00
73594;BME280;64760;53.404;23.498;2023-04-09T03:17:03;100309.38;;;7.72;100.00
73594;BME280;64760;53.404;23.498;2023-04-09T03:19:29;100315.00;;;7.69;100.00
73594;BME280;64760;53.404;23.498;2023-04-09T03:21:56;100307.69;;;7.71;100.00
73594;BME280;64760;53.404;23.498;2023-04-09T03:24:25;100308.56;;;7.96;100.00
73594;BME280;64760;53.404;23.498;2023-04-09T03:26:52;100317.75;;;8.10;100.00
73594;BME280;64760;53.404;23.498;2023-04-09T03:29:18;100317.72;;;7.85;100.00
73594;BME280;64760;53.404;23.498;2023-04-09T03:31:46;100318.06;;;7.98;100.00
73594;BME280;64760;53.404;23.498;2023-04-09T03:34:12;100314.41;;;7.99;100.00
73594;BME280;64760;53.404;23.498;2023-04-09T03:36:38;100315.75;;;8.03;100.00
73594;BME280;64760;53.404;23.498;2023-04-09T03:39:21;100317.25;;;8.06;100.00
73594;BME280;64760;53.404;23.498;2023-04-09T03:41:47;100321.91;;;8.12;100.00
73594;BME280;64760;53.404;23.498;2023-04-09T03:44:16;100324.75;;;8.11;100.00
73594;BME280;64760;53.404;23.498;2023-04-09T03:46:56;100323.25;;;8.16;100.00
73594;BME280;64760;53.404;23.498;2023-04-09T03:49:24;100324.75;;;8.19;100.00
73594;BME280;64760;53.404;23.498;2023-04-09T03:51:51;100326.25;;;8.05;100.00
73594;BME280;64760;53.404;23.498;2023-04-09T03:54:18;100338.13;;;8.27;100.00
73594;BME280;64760;53.404;23.498;2023-04-09T03:56:45;100329.75;;;8.22;100.00
73594;BME280;64760;53.404;23.498;2023-04-09T03:59:19;100335.59;;;8.25;100.00
73594;BME280;64760;53.404;23.498;2023-04-09T04:01:46;100339.63;;;8.29;100.00
73594;BME280;64760;53.404;23.498;2023-04-09T04:04:14;100335.44;;;8.27;100.00
73594;BME280;64760;53.404;23.498;2023-04-09T04:06:47;100338.75;;;8.13;100.00
73594;BME280;64760;53.404;23.498;2023-04-09T04:09:29;100349.13;;;8.16;100.00
73594;BME280;64760;53.404;23.498;2023-04-09T04:12:08;100348.94;;;8.25;100.00
73594;BME280;64760;53.404;23.498;2023-04-09T04:15:07;100336.81;;;8.31;100.00
73594;BME280;64760;53.404;23.498;2023-04-09T04:17:43;100345.81;;;8.30;100.00
73594;BME280;64760;53.404;23.498;2023-04-09T04:20:19;100342.50;;;8.36;100.00
73594;BME280;64760;53.404;23.498;2023-04-09T04:22:58;100352.13;;;8.21;100.00
73594;BME280;64760;53.404;23.498;2023-04-09T04:25:26;100349.44;;;8.04;100.00
73594;BME280;64760;53.404;23.498;2023-04-09T04:27:53;100350.44;;;7.95;100.00
73594;BME280;64760;53.404;23.498;2023-04-09T04:30:23;100349.28;;;8.06;100.00
73594;BME280;64760;53.404;23.498;2023-04-09T04:32:58;100348.41;;;7.89;100.00
73594;BME280;64760;53.404;23.498;2023-04-09T04:35:26;100350.91;;;7.83;100.00
73594;BME280;64760;53.404;23.498;2023-04-09T04:37:55;100351.44;;;7.94;100.00
73594;BME280;64760;53.404;23.498;2023-04-09T04:40:22;100343.41;;;7.78;100.00
73594;BME280;64760;53.404;23.498;2023-04-09T04:42:55;100342.09;;;7.98;100.00
73594;BME280;64760;53.404;23.498;2023-04-09T04:45:22;100353.16;;;8.20;100.00
73594;BME280;64760;53.404;23.498;2023-04-09T04:47:55;100343.31;;;8.36;100.00
73594;BME280;64760;53.404;23.498;2023-04-09T04:50:21;100360.16;;;8.29;100.00
73594;BME280;64760;53.404;23.498;2023-04-09T04:52:56;100351.31;;;8.36;100.00
73594;BME280;64760;53.404;23.498;2023-04-09T04:55:26;100355.16;;;8.42;100.00
73594;BME280;64760;53.404;23.498;2023-04-09T04:57:52;100351.16;;;8.38;100.00
73594;BME280;64760;53.404;23.498;2023-04-09T05:00:21;100348.09;;;8.17;100.00
73594;BME280;64760;53.404;23.498;2023-04-09T05:02:48;100351.81;;;8.16;100.00
73594;BME280;64760;53.404;23.498;2023-04-09T05:05:21;100353.78;;;8.06;100.00
73594;BME280;64760;53.404;23.498;2023-04-09T05:07:51;100346.94;;;8.03;100.00
73594;BME280;64760;53.404;23.498;2023-04-09T05:10:18;100354.63;;;8.06;100.00
73594;BME280;64760;53.404;23.498;2023-04-09T05:12:45;100351.47;;;8.11;100.00
73594;BME280;64760;53.404;23.498;2023-04-09T05:15:18;100342.47;;;8.28;100.00
73594;BME280;64760;53.404;23.498;2023-04-09T05:17:45;100351.84;;;8.40;100.00
73594;BME280;64760;53.404;23.498;2023-04-09T05:20:13;100350.63;;;8.26;100.00
73594;BME280;64760;53.404;23.498;2023-04-09T05:22:56;100353.16;;;8.28;100.00
73594;BME280;64760;53.404;23.498;2023-04-09T05:25:29;100356.50;;;8.30;100.00
73594;BME280;64760;53.404;23.498;2023-04-09T05:27:55;100346.81;;;8.29;100.00
73594;BME280;64760;53.404;23.498;2023-04-09T05:30:23;100355.84;;;8.36;100.00
73594;BME280;64760;53.404;23.498;2023-04-09T05:32:49;100350.47;;;8.52;100.00
73594;BME280;64760;53.404;23.498;2023-04-09T05:35:16;100350.94;;;8.80;100.00
73594;BME280;64760;53.404;23.498;2023-04-09T05:37:43;100351.13;;;8.78;100.00
73594;BME280;64760;53.404;23.498;2023-04-09T05:40:11;100359.50;;;8.67;100.00
73594;BME280;64760;53.404;23.498;2023-04-09T05:42:37;100352.78;;;8.95;100.00
73594;BME280;64760;53.404;23.498;2023-04-09T05:45:10;100365.94;;;8.97;100.00
73594;BME280;64760;53.404;23.498;2023-04-09T05:47:41;100362.13;;;9.00;100.00
73594;BME280;64760;53.404;23.498;2023-04-09T05:50:13;100362.72;;;9.18;100.00
73594;BME280;64760;53.404;23.498;2023-04-09T05:52:40;100366.72;;;9.22;100.00
73594;BME280;64760;53.404;23.498;2023-04-09T05:55:06;100366.63;;;9.46;100.00
73594;BME280;64760;53.404;23.498;2023-04-09T05:57:54;100359.47;;;9.38;100.00
73594;BME280;64760;53.404;23.498;2023-04-09T06:00:21;100369.56;;;9.67;99.84
73594;BME280;64760;53.404;23.498;2023-04-09T06:02:48;100370.78;;;9.79;98.75
73594;BME280;64760;53.404;23.498;2023-04-09T06:05:15;100371.25;;;9.91;98.51
73594;BME280;64760;53.404;23.498;2023-04-09T06:07:41;100367.69;;;9.99;98.21
73594;BME280;64760;53.404;23.498;2023-04-09T06:10:08;100378.34;;;10.15;96.45
73594;BME280;64760;53.404;23.498;2023-04-09T06:12:34;100377.06;;;10.25;97.12
73594;BME280;64760;53.404;23.498;2023-04-09T06:15:05;100386.78;;;10.26;94.56
73594;BME280;64760;53.404;23.498;2023-04-09T06:17:32;100377.56;;;10.29;95.84
73594;BME280;64760;53.404;23.498;2023-04-09T06:19:58;100373.88;;;10.67;94.09
73594;BME280;64760;53.404;23.498;2023-04-09T06:22:24;100383.25;;;10.49;94.77
73594;BME280;64760;53.404;23.498;2023-04-09T06:24:51;100375.75;;;10.44;94.82
73594;BME280;64760;53.404;23.498;2023-04-09T06:27:17;100379.97;;;10.61;93.47
73594;BME280;64760;53.404;23.498;2023-04-09T06:29:44;100376.16;;;10.56;93.62
73594;BME280;64760;53.404;23.498;2023-04-09T06:32:10;100380.75;;;10.70;93.27
73594;BME280;64760;53.404;23.498;2023-04-09T06:34:36;100376.53;;;11.05;90.29
73594;BME280;64760;53.404;23.498;2023-04-09T06:37:02;100379.38;;;11.03;91.07
73594;BME280;64760;53.404;23.498;2023-04-09T06:39:29;100382.66;;;11.28;90.62
73594;BME280;64760;53.404;23.498;2023-04-09T06:41:55;100381.81;;;11.27;89.40
73594;BME280;64760;53.404;23.498;2023-04-09T06:44:36;100380.59;;;11.01;90.00
73594;BME280;64760;53.404;23.498;2023-04-09T06:47:02;100387.50;;;10.95;90.93
73594;BME280;64760;53.404;23.498;2023-04-09T06:49:28;100386.25;;;11.35;89.39
73594;BME280;64760;53.404;23.498;2023-04-09T06:51:54;100389.50;;;11.45;88.35
73594;BME280;64760;53.404;23.498;2023-04-09T06:54:21;100389.00;;;11.86;86.56
73594;BME280;64760;53.404;23.498;2023-04-09T06:56:47;100391.03;;;11.69;86.14
73594;BME280;64760;53.404;23.498;2023-04-09T06:59:13;100386.63;;;11.61;87.18
73594;BME280;64760;53.404;23.498;2023-04-09T07:01:39;100388.28;;;11.62;85.70
73594;BME280;64760;53.404;23.498;2023-04-09T07:04:06;100390.31;;;11.31;87.56
73594;BME280;64760;53.404;23.498;2023-04-09T07:06:32;100390.41;;;11.52;87.71
73594;BME280;64760;53.404;23.498;2023-04-09T07:08:59;100387.44;;;11.47;87.69
73594;BME280;64760;53.404;23.498;2023-04-09T07:11:25;100386.69;;;11.83;85.21
73594;BME280;64760;53.404;23.498;2023-04-09T07:13:52;100399.03;;;11.62;86.99
73594;BME280;64760;53.404;23.498;2023-04-09T07:16:18;100398.09;;;11.70;85.83
73594;BME280;64760;53.404;23.498;2023-04-09T07:18:45;100405.09;;;11.71;86.01
73594;BME280;64760;53.404;23.498;2023-04-09T07:21:11;100405.59;;;11.60;86.75
73594;BME280;64760;53.404;23.498;2023-04-09T07:23:38;100406.63;;;11.73;86.84
73594;BME280;64760;53.404;23.498;2023-04-09T07:26:04;100406.88;;;11.78;86.54
73594;BME280;64760;53.404;23.498;2023-04-09T07:28:31;100412.53;;;11.69;86.58
73594;BME280;64760;53.404;23.498;2023-04-09T07:30:59;100405.88;;;11.80;86.68
73594;BME280;64760;53.404;23.498;2023-04-09T07:33:26;100406.22;;;11.91;86.83
73594;BME280;64760;53.404;23.498;2023-04-09T07:35:52;100419.31;;;11.80;86.43
73594;BME280;64760;53.404;23.498;2023-04-09T07:38:19;100418.13;;;12.18;84.93
73594;BME280;64760;53.404;23.498;2023-04-09T07:40:45;100410.75;;;12.27;83.58
73594;BME280;64760;53.404;23.498;2023-04-09T07:43:13;100413.09;;;12.15;84.65
73594;BME280;64760;53.404;23.498;2023-04-09T07:45:39;100406.81;;;12.08;84.17
73594;BME280;64760;53.404;23.498;2023-04-09T07:48:06;100412.53;;;12.19;84.91
73594;BME280;64760;53.404;23.498;2023-04-09T07:50:34;100411.59;;;12.27;84.20
73594;BME280;64760;53.404;23.498;2023-04-09T07:53:00;100409.34;;;12.09;85.36
73594;BME280;64760;53.404;23.498;2023-04-09T07:55:26;100405.88;;;11.94;85.44
73594;BME280;64760;53.404;23.498;2023-04-09T07:57:56;100417.63;;;12.29;84.89
73594;BME280;64760;53.404;23.498;2023-04-09T08:00:22;100414.22;;;12.42;83.99
73594;BME280;64760;53.404;23.498;2023-04-09T08:02:49;100410.50;;;12.85;81.46
73594;BME280;64760;53.404;23.498;2023-04-09T08:05:15;100415.47;;;12.88;81.80
73594;BME280;64760;53.404;23.498;2023-04-09T08:07:41;100400.00;;;12.69;82.53
73594;BME280;64760;53.404;23.498;2023-04-09T08:10:11;100410.75;;;12.69;82.29
73594;BME280;64760;53.404;23.498;2023-04-09T08:12:46;100412.59;;;12.90;81.10
73594;BME280;64760;53.404;23.498;2023-04-09T08:15:13;100404.34;;;12.98;80.72
73594;BME280;64760;53.404;23.498;2023-04-09T08:17:39;100404.41;;;12.77;82.68
73594;BME280;64760;53.404;23.498;2023-04-09T08:20:06;100399.97;;;13.18;81.09
73594;BME280;64760;53.404;23.498;2023-04-09T08:22:32;100405.09;;;13.82;77.41
73594;BME280;64760;53.404;23.498;2023-04-09T08:24:59;100389.41;;;13.98;76.21
73594;BME280;64760;53.404;23.498;2023-04-09T08:27:25;100404.81;;;13.63;76.45
73594;BME280;64760;53.404;23.498;2023-04-09T08:29:52;100405.44;;;13.65;77.18
73594;BME280;64760;53.404;23.498;2023-04-09T08:32:18;100396.78;;;13.36;76.75
73594;BME280;64760;53.404;23.498;2023-04-09T08:34:44;100406.13;;;13.40;76.66
73594;BME280;64760;53.404;23.498;2023-04-09T08:37:11;100404.16;;;13.61;75.28
73594;BME280;64760;53.404;23.498;2023-04-09T08:39:39;100411.28;;;13.35;76.97
73594;BME280;64760;53.404;23.498;2023-04-09T08:42:07;100403.78;;;13.64;75.48
73594;BME280;64760;53.404;23.498;2023-04-09T08:44:33;100409.22;;;13.78;74.65
73594;BME280;64760;53.404;23.498;2023-04-09T08:47:00;100415.06;;;13.47;74.67
73594;BME280;64760;53.404;23.498;2023-04-09T08:49:27;100404.47;;;13.73;73.08
73594;BME280;64760;53.404;23.498;2023-04-09T08:51:53;100404.03;;;13.76;73.17
73594;BME280;64760;53.404;23.498;2023-04-09T08:54:19;100408.06;;;14.00;72.40
73594;BME280;64760;53.404;23.498;2023-04-09T08:56:46;100410.53;;;13.95;72.74
73594;BME280;64760;53.404;23.498;2023-04-09T08:59:16;100412.72;;;13.72;73.09
73594;BME280;64760;53.404;23.498;2023-04-09T09:01:45;100414.13;;;14.08;72.57
73594;BME280;64760;53.404;23.498;2023-04-09T09:04:16;100419.94;;;14.19;71.44
73594;BME280;64760;53.404;23.498;2023-04-09T09:06:42;100422.78;;;13.97;73.33
73594;BME280;64760;53.404;23.498;2023-04-09T09:09:16;100430.25;;;14.63;70.00
73594;BME280;64760;53.404;23.498;2023-04-09T09:11:44;100429.25;;;14.09;68.01
73594;BME280;64760;53.404;23.498;2023-04-09T09:14:16;100426.78;;;14.08;68.18
73594;BME280;64760;53.404;23.498;2023-04-09T09:17:04;100435.69;;;14.15;67.68
73594;BME280;64760;53.404;23.498;2023-04-09T09:19:31;100428.69;;;14.27;67.61
73594;BME280;64760;53.404;23.498;2023-04-09T09:22:04;100419.22;;;14.57;67.24
73594;BME280;64760;53.404;23.498;2023-04-09T09:24:31;100425.25;;;15.25;64.38
73594;BME280;64760;53.404;23.498;2023-04-09T09:26:59;100415.88;;;15.34;63.40
73594;BME280;64760;53.404;23.498;2023-04-09T09:29:27;100427.13;;;15.18;63.45
73594;BME280;64760;53.404;23.498;2023-04-09T09:31:55;100411.78;;;14.99;61.11
73594;BME280;64760;53.404;23.498;2023-04-09T09:34:22;100429.44;;;14.69;63.46
73594;BME280;64760;53.404;23.498;2023-04-09T09:36:49;100415.06;;;15.27;62.50
73594;BME280;64760;53.404;23.498;2023-04-09T09:39:16;100417.13;;;15.58;59.77
73594;BME280;64760;53.404;23.498;2023-04-09T09:41:44;100415.13;;;15.91;55.80
73594;BME280;64760;53.404;23.498;2023-04-09T09:44:29;100416.09;;;16.48;54.39
73594;BME280;64760;53.404;23.498;2023-04-09T09:46:56;100414.63;;;16.45;54.32
73594;BME280;64760;53.404;23.498;2023-04-09T09:49:23;100405.91;;;16.75;53.70
73594;BME280;64760;53.404;23.498;2023-04-09T09:51:52;100401.81;;;17.15;54.69
73594;BME280;64760;53.404;23.498;2023-04-09T09:54:24;100404.84;;;16.44;54.61
73594;BME280;64760;53.404;23.498;2023-04-09T09:56:54;100403.63;;;17.21;52.22
73594;BME280;64760;53.404;23.498;2023-04-09T09:59:25;100403.59;;;16.78;51.74
73594;BME280;64760;53.404;23.498;2023-04-09T10:01:59;100412.56;;;15.52;54.32
73594;BME280;64760;53.404;23.498;2023-04-09T10:04:28;100396.84;;;16.56;51.94
73594;BME280;64760;53.404;23.498;2023-04-09T10:06:55;100411.59;;;17.16;49.91
73594;BME280;64760;53.404;23.498;2023-04-09T10:09:22;100406.69;;;17.07;49.73
73594;BME280;64760;53.404;23.498;2023-04-09T10:11:49;100402.16;;;17.44;49.20
73594;BME280;64760;53.404;23.498;2023-04-09T10:14:16;100391.75;;;17.22;51.40
73594;BME280;64760;53.404;23.498;2023-04-09T10:16:43;100406.88;;;16.87;50.40
73594;BME280;64760;53.404;23.498;2023-04-09T10:19:09;100392.69;;;16.85;50.57
73594;BME280;64760;53.404;23.498;2023-04-09T10:21:50;100393.91;;;17.75;47.68
73594;BME280;64760;53.404;23.498;2023-04-09T10:24:19;100399.91;;;17.16;49.64
73594;BME280;64760;53.404;23.498;2023-04-09T10:26:46;100392.63;;;17.16;49.04
73594;BME280;64760;53.404;23.498;2023-04-09T10:29:14;100393.56;;;17.47;47.55
73594;BME280;64760;53.404;23.498;2023-04-09T10:32:04;100395.66;;;17.26;47.99
73594;BME280;64760;53.404;23.498;2023-04-09T10:34:49;100386.25;;;16.86;48.13
73594;BME280;64760;53.404;23.498;2023-04-09T10:37:22;100393.81;;;17.02;48.65
73594;BME280;64760;53.404;23.498;2023-04-09T10:39:49;100392.69;;;17.89;48.34
73594;BME280;64760;53.404;23.498;2023-04-09T10:42:22;100379.44;;;18.41;47.22
73594;BME280;64760;53.404;23.498;2023-04-09T10:45:12;100385.75;;;18.53;45.70
73594;BME280;64760;53.404;23.498;2023-04-09T10:47:41;100381.22;;;18.88;44.90
73594;BME280;64760;53.404;23.498;2023-04-09T10:50:23;100378.72;;;18.34;46.13
73594;BME280;64760;53.404;23.498;2023-04-09T10:52:52;100378.03;;;19.38;44.45
73594;BME280;64760;53.404;23.498;2023-04-09T10:55:38;100383.16;;;18.28;44.89
73594;BME280;64760;53.404;23.498;2023-04-09T10:58:10;100376.31;;;18.55;44.48
73594;BME280;64760;53.404;23.498;2023-04-09T11:00:38;100376.75;;;18.94;46.28
73594;BME280;64760;53.404;23.498;2023-04-09T11:03:18;100370.59;;;19.33;45.30
73594;BME280;64760;53.404;23.498;2023-04-09T11:05:57;100367.41;;;19.48;43.69
73594;BME280;64760;53.404;23.498;2023-04-09T11:08:27;100358.31;;;19.42;43.64
73594;BME280;64760;53.404;23.498;2023-04-09T11:10:54;100368.72;;;18.99;45.20
73594;BME280;64760;53.404;23.498;2023-04-09T11:13:24;100370.50;;;18.10;46.82
73594;BME280;64760;53.404;23.498;2023-04-09T11:15:54;100363.16;;;18.94;45.60
73594;BME280;64760;53.404;23.498;2023-04-09T11:18:25;100361.84;;;19.08;44.86
73594;BME280;64760;53.404;23.498;2023-04-09T11:21:00;100364.19;;;18.81;43.13
73594;BME280;64760;53.404;23.498;2023-04-09T11:23:27;100358.00;;;18.51;44.07
73594;BME280;64760;53.404;23.498;2023-04-09T11:25:54;100353.19;;;18.53;43.88
73594;BME280;64760;53.404;23.498;2023-04-09T11:28:22;100353.09;;;17.70;46.17
73594;BME280;64760;53.404;23.498;2023-04-09T11:30:50;100351.72;;;18.50;44.92
73594;BME280;64760;53.404;23.498;2023-04-09T11:33:17;100354.84;;;17.94;43.37
73594;BME280;64760;53.404;23.498;2023-04-09T11:35:43;100352.22;;;17.88;44.86
73594;BME280;64760;53.404;23.498;2023-04-09T11:38:10;100352.91;;;18.43;45.69
73594;BME280;64760;53.404;23.498;2023-04-09T11:40:40;100352.78;;;18.08;45.43
73594;BME280;64760;53.404;23.498;2023-04-09T11:43:13;100346.13;;;18.22;44.86
73594;BME280;64760;53.404;23.498;2023-04-09T11:45:41;100348.13;;;18.91;43.36
73594;BME280;64760;53.404;23.498;2023-04-09T11:48:08;100347.06;;;18.69;43.33
73594;BME280;64760;53.404;23.498;2023-04-09T11:50:35;100337.06;;;18.51;43.60
73594;BME280;64760;53.404;23.498;2023-04-09T11:53:21;100337.13;;;17.62;45.12
73594;BME280;64760;53.404;23.498;2023-04-09T11:55:51;100338.47;;;17.71;45.65
73594;BME280;64760;53.404;23.498;2023-04-09T11:58:22;100344.91;;;17.52;47.36
73594;BME280;64760;53.404;23.498;2023-04-09T12:00:57;100341.22;;;17.28;46.27
73594;BME280;64760;53.404;23.498;2023-04-09T12:03:28;100335.13;;;17.87;45.56
73594;BME280;64760;53.404;23.498;2023-04-09T12:05:59;100338.81;;;18.22;45.16
73594;BME280;64760;53.404;23.498;2023-04-09T12:08:26;100336.38;;;18.03;45.24
73594;BME280;64760;53.404;23.498;2023-04-09T12:10:52;100333.63;;;17.91;45.52
73594;BME280;64760;53.404;23.498;2023-04-09T12:13:20;100329.09;;;17.85;46.83
73594;BME280;64760;53.404;23.498;2023-04-09T12:15:47;100325.81;;;18.24;46.60
73594;BME280;64760;53.404;23.498;2023-04-09T12:18:14;100322.16;;;18.72;44.28
73594;BME280;64760;53.404;23.498;2023-04-09T12:20:45;100321.50;;;18.47;44.49
73594;BME280;64760;53.404;23.498;2023-04-09T12:23:13;100324.78;;;18.37;45.26
73594;BME280;64760;53.404;23.498;2023-04-09T12:25:41;100317.03;;;19.34;44.23
73594;BME280;64760;53.404;23.498;2023-04-09T12:28:10;100314.44;;;19.39;44.76
73594;BME280;64760;53.404;23.498;2023-04-09T12:30:36;100314.97;;;18.89;44.29
73594;BME280;64760;53.404;23.498;2023-04-09T12:33:03;100317.66;;;18.66;43.99
73594;BME280;64760;53.404;23.498;2023-04-09T12:35:29;100321.72;;;18.34;45.47
73594;BME280;64760;53.404;23.498;2023-04-09T12:37:56;100323.16;;;18.48;45.83
73594;BME280;64760;53.404;23.498;2023-04-09T12:40:36;100317.34;;;18.33;46.30
73594;BME280;64760;53.404;23.498;2023-04-09T12:43:02;100322.00;;;18.55;44.61
73594;BME280;64760;53.404;23.498;2023-04-09T12:45:29;100321.44;;;19.00;43.97
73594;BME280;64760;53.404;23.498;2023-04-09T12:47:56;100311.28;;;18.60;44.02
73594;BME280;64760;53.404;23.498;2023-04-09T12:50:23;100313.06;;;18.78;43.37
73594;BME280;64760;53.404;23.498;2023-04-09T12:52:49;100312.59;;;18.58;44.67
73594;BME280;64760;53.404;23.498;2023-04-09T12:55:15;100306.28;;;19.39;42.68
73594;BME280;64760;53.404;23.498;2023-04-09T12:57:43;100303.78;;;19.37;41.09